KNYG/NYG METAR and TAF weather

Enter ICAO airport designator
Station Type Date Time Source
KNYG METAR 2019/10/22 15:56 UTC NOAA

KNYG 221556Z 19007KT 10SM BR BKN006 OVC010 17/15 A2994 RMK AO2 SLP138 T01720150 $


Station Type Date Time Source
KNYG Decoded METAR 2019/10/22 15:56 UTC NOAA

QUANTICO MARINE CORPS AIRFAC, VA, United States (KNYG) 38-30N 077-18W 3M
Oct 22, 2019 - 11:56 AM EDT / 2019.10.22 1556 UTC
Wind: from the S (190 degrees) at 8 MPH (7 KT):0
Visibility: 10 mile(s):0
Sky conditions: overcast
Weather: mist
Temperature: 63.0 F (17.2 C)
Dew Point: 59.0 F (15.0 C)
Relative Humidity: 86%
Pressure (altimeter): 29.94 in. Hg (1013 hPa)
ob: KNYG 221556Z 19007KT 10SM BR BKN006 OVC010 17/15 A2994 RMK AO2 SLP138 T01720150
cycle: 16

Station Type Date Time Source
KNYG TAF 2019/10/22 15:46 UTC NOAA

TAF KNYG 2215/2315 20008KT 9000 BR OVC006 QNH2986INS
BECMG 2218/2220 15009KT 8000 RA BR OVC009 QNH2979INS
TEMPO 2218/2222 15009G20KT 4000 +RA BR OVC006
FM230000 VRB06KT 9999 SKC QNH2984INS T19/2220Z T09/2310Z

Example: see airport list